Time;durP1;ratioP1;P1;durP2;ratioP2;P2;SDS_P1;SDS_P2;PMS_P1;PMS_P2;Temp;Humidity;BMP_temperature;BMP_pressure;BME280_temperature;BME280_humidity;BME280_pressure;Samples;Min_cycle;Max_cycle;Signal;HPM_P1;HPM_P2
2022/03/20 06:45:13;;;;;;;;;;;;;;;;;;;;;
2022/03/20 06:48:28;;;;;;;;;;;;;;;;;;;;;
2022/03/20 06:51:17;;;;;;;22.95;13.77;;;7.30;99.90;;;;;;6123313;23;20077;-91
2022/03/20 06:54:32;;;;;;;;;;;;;;;;;;;;;
2022/03/20 06:57:18;;;;;;;;;;;;;;;;;;;;;
2022/03/20 07:06:59;;;;;;;21.33;12.48;;;7.30;99.90;;;;;;5967815;23;20008;-92
2022/03/20 07:10:00;;;;;;;;;;;;;;;;;;;;;
2022/03/20 07:19:31;;;;;;;20.45;12.52;;;7.30;99.90;;;;;;6029832;23;20011;-92
2022/03/20 07:22:07;;;;;;;;;;;;;;;;;;;;;
2022/03/20 08:42:52;;;;;;;15.88;9.80;;;8.80;98.30;;;;;;5798670;24;20469;-91
2022/03/20 08:45:41;;;;;;;14.77;9.30;;;8.90;97.80;;;;;;5814085;24;20361;-92
2022/03/20 08:48:08;;;;;;;17.83;9.80;;;9.00;97.80;;;;;;5927301;23;20038;-90
2022/03/20 08:50:34;;;;;;;18.60;9.00;;;9.00;97.60;;;;;;6104446;23;20002;-92
2022/03/20 08:53:50;;;;;;;;;;;;;;;;;;;;;
2022/03/20 08:57:16;;;;;;;;;;;;;;;;;;;;;
2022/03/20 09:32:12;;;;;;;18.08;9.38;;;10.40;95.10;;;;;;6210229;22;1344546;-90
2022/03/20 09:38:25;;;;;;;;;;;;;;;;;;;;;
2022/03/20 09:41:33;;;;;;;15.07;9.93;;;10.60;94.90;;;;;;6259862;23;20048;-90
2022/03/20 09:44:21;;;;;;;17.83;11.40;;;10.70;94.20;;;;;;6260733;22;20395;-89
2022/03/20 09:47:28;;;;;;;;;;;;;;;;;;;;;
2022/03/20 09:50:47;;;;;;;;;;;;;;;;;;;;;
2022/03/20 09:53:48;;;;;;;;;;;;;;;;;;;;;
2022/03/20 09:57:05;;;;;;;;;;;;;;;;;;;;;
2022/03/20 10:00:16;;;;;;;;;;;;;;;;;;;;;
2022/03/20 10:06:50;;;;;;;;;;;;;;;;;;;;;
2022/03/20 10:09:58;;;;;;;18.88;11.90;;;11.50;93.90;;;;;;6142310;23;20024;-93
2022/03/20 10:23:38;;;;;;;21.67;14.30;;;12.00;93.40;;;;;;5933909;23;20157;-90
2022/03/20 10:26:36;;;;;;;19.88;12.75;;;12.10;92.70;;;;;;5932901;24;20459;-92
2022/03/20 10:43:27;;;;;;;;;;;;;;;;;;;;;
2022/03/20 10:49:25;;;;;;;24.83;14.57;;;12.10;92.40;;;;;;5735848;24;20017;-93
2022/03/20 10:56:09;;;;;;;26.60;15.38;;;12.00;90.90;;;;;;5790218;24;20011;-91
2022/03/20 10:59:46;;;;;;;22.73;14.48;;;12.20;91.60;;;;;;5783876;24;20034;-89
2022/03/20 11:01:53;;;;;;;23.13;14.52;;;12.30;92.70;;;;;;5965197;23;20020;-90
2022/03/20 11:04:39;;;;;;;27.15;15.60;;;12.40;92.90;;;;;;5929069;24;20019;-90
2022/03/20 11:07:07;;;;;;;24.63;15.43;;;12.40;91.50;;;;;;5978220;23;20007;-90
2022/03/20 11:09:36;;;;;;;26.10;16.02;;;12.50;92.00;;;;;;6072704;23;20009;-90
2022/03/20 11:12:14;;;;;;;23.30;15.20;;;12.50;92.60;;;;;;6158460;23;20001;-89
2022/03/20 11:14:44;;;;;;;28.20;15.20;;;12.50;90.90;;;;;;6156475;23;20035;-90
2022/03/20 11:17:14;;;;;;;25.48;16.00;;;12.70;92.50;;;;;;6159153;23;20052;-90
2022/03/20 11:19:46;;;;;;;28.48;17.00;;;12.70;92.80;;;;;;6185021;23;20016;-90
2022/03/20 11:22:17;;;;;;;24.67;15.38;;;12.80;91.50;;;;;;6245838;23;20123;-90
2022/03/20 11:24:52;;;;;;;25.88;16.13;;;12.80;91.60;;;;;;6246092;23;20070;-89
2022/03/20 11:27:30;;;;;;;23.40;15.20;;;12.90;91.90;;;;;;6244647;23;20018;-91
2022/03/20 11:30:05;;;;;;;23.42;14.93;;;13.00;91.60;;;;;;6246564;23;20004;-90
2022/03/20 11:32:33;;;;;;;21.05;14.90;;;13.10;91.60;;;;;;6220644;23;20004;-90
2022/03/20 11:35:03;;;;;;;24.40;15.27;;;13.20;92.30;;;;;;6250952;22;19987;-91
2022/03/20 11:37:51;;;;;;;22.50;15.50;;;13.20;91.20;;;;;;6272306;22;19988;-90
2022/03/20 11:40:24;;;;;;;27.98;16.58;;;13.20;90.70;;;;;;6269780;22;19997;-90
2022/03/20 11:43:32;;;;;;;26.00;15.23;;;13.30;91.80;;;;;;6260840;22;20467;-91
2022/03/20 11:46:37;;;;;;;26.83;17.00;;;13.30;90.80;;;;;;6245773;23;20007;-91
2022/03/20 11:49:17;;;;;;;28.00;16.63;;;13.30;90.50;;;;;;6250274;23;20333;-91
2022/03/20 11:52:13;;;;;;;28.05;16.83;;;13.40;91.30;;;;;;6246079;23;20050;-90
2022/03/20 11:54:42;;;;;;;28.40;16.90;;;13.40;90.60;;;;;;6245816;23;20004;-91
2022/03/20 11:57:29;;;;;;;26.23;16.98;;;13.50;91.70;;;;;;6247791;23;20007;-91
2022/03/20 12:00:13;;;;;;;33.22;18.38;;;13.50;91.20;;;;;;6246105;23;20302;-90
2022/03/20 12:03:09;;;;;;;34.47;18.58;;;13.50;91.10;;;;;;6246850;23;20000;-90
2022/03/20 12:05:57;;;;;;;30.67;18.67;;;13.50;91.20;;;;;;6248219;23;20019;-90
2022/03/20 12:08:43;;;;;;;29.58;18.65;;;13.60;91.20;;;;;;6247337;23;20008;-91
2022/03/20 12:11:18;;;;;;;30.98;19.05;;;13.60;91.40;;;;;;6245869;23;20416;-92
2022/03/20 12:14:14;;;;;;;31.85;19.60;;;13.60;90.90;;;;;;6245983;23;20440;-90
2022/03/20 12:16:48;;;;;;;31.08;19.23;;;13.60;88.20;;;;;;6245357;23;20011;-89
2022/03/20 12:19:19;;;;;;;32.80;19.67;;;13.60;90.00;;;;;;6244562;23;20024;-91
2022/03/20 12:22:01;;;;;;;29.95;20.65;;;13.60;90.70;;;;;;6245528;23;20011;-92
2022/03/20 12:24:36;;;;;;;34.78;20.98;;;13.60;90.50;;;;;;6246703;23;20000;-91
2022/03/20 12:27:22;;;;;;;37.80;21.58;;;13.70;91.40;;;;;;6245841;23;20031;-90
2022/03/20 12:30:03;;;;;;;32.40;21.27;;;13.70;90.70;;;;;;6221148;23;20004;-92
2022/03/20 12:32:50;;;;;;;32.90;21.08;;;13.70;91.10;;;;;;6244551;23;20047;-90
2022/03/20 12:35:18;;;;;;;37.25;21.98;;;13.80;91.40;;;;;;6243152;23;20069;-92
2022/03/20 12:37:44;;;;;;;39.20;22.23;;;13.90;90.80;;;;;;6245565;23;20014;-91
2022/03/20 12:40:30;;;;;;;33.90;21.80;;;13.90;90.70;;;;;;6244554;23;20039;-90
2022/03/20 12:43:02;;;;;;;36.75;22.48;;;13.90;91.80;;;;;;6245899;23;20039;-91
2022/03/20 12:45:29;;;;;;;37.33;22.23;;;14.00;91.40;;;;;;6245633;23;20243;-90
2022/03/20 12:48:07;;;;;;;37.20;22.38;;;14.00;90.70;;;;;;6245868;23;20005;-90
2022/03/20 12:50:39;;;;;;;43.72;23.55;;;14.10;90.40;;;;;;6244553;23;20003;-90
2022/03/20 12:53:07;;;;;;;34.70;21.55;;;14.10;90.30;;;;;;6245458;23;20004;-90
2022/03/20 12:55:35;;;;;;;35.40;22.45;;;14.20;90.60;;;;;;6246020;23;20014;-90
2022/03/20 12:58:03;;;;;;;37.10;22.55;;;14.20;89.50;;;;;;6245237;23;20000;-89
2022/03/20 13:00:38;;;;;;;37.77;22.53;;;14.20;90.50;;;;;;6247635;22;20012;-89
2022/03/20 13:03:12;;;;;;;34.40;22.15;;;14.20;88.20;;;;;;6246006;23;20231;-90
2022/03/20 13:05:45;;;;;;;36.08;22.23;;;14.20;86.00;;;;;;6245829;23;20004;-90
2022/03/20 13:08:44;;;;;;;39.25;23.67;;;14.20;90.10;;;;;;6244869;23;20000;-90
2022/03/20 13:14:01;;;;;;;37.28;23.10;;;14.30;89.20;;;;;;6248127;23;20522;-90
2022/03/20 13:16:29;;;;;;;36.65;23.55;;;14.50;90.60;;;;;;6247286;23;20004;-91
2022/03/20 13:18:55;;;;;;;37.40;22.17;;;14.80;90.20;;;;;;6248781;23;20000;-90
2022/03/20 13:21:21;;;;;;;42.53;23.90;;;14.90;89.40;;;;;;6245713;23;20004;-89
2022/03/20 13:23:49;;;;;;;39.00;24.90;;;15.00;86.90;;;;;;6246181;23;20087;-92
2022/03/20 13:26:21;;;;;;;41.28;25.63;;;15.10;86.80;;;;;;6246041;23;20004;-91
2022/03/20 13:28:47;;;;;;;40.38;25.20;;;15.20;88.10;;;;;;6247466;23;20020;-90
2022/03/20 13:31:19;;;;;;;38.80;24.42;;;15.20;89.40;;;;;;6245890;23;20058;-91
2022/03/20 13:33:59;;;;;;;34.00;23.08;;;15.20;88.00;;;;;;6247080;22;20007;-92
2022/03/20 13:36:48;;;;;;;37.65;24.20;;;15.20;86.30;;;;;;6243047;23;20024;-90
2022/03/20 13:39:21;;;;;;;40.47;24.35;;;15.20;87.90;;;;;;6246746;23;20008;-90
2022/03/20 13:41:46;;;;;;;40.35;24.20;;;15.10;87.60;;;;;;6246925;23;20016;-91
2022/03/20 13:44:15;;;;;;;37.58;24.20;;;15.10;87.20;;;;;;6247385;22;20019;-91
2022/03/20 13:46:48;;;;;;;37.25;24.77;;;15.00;87.70;;;;;;6248248;22;20004;-93
2022/03/20 13:49:18;;;;;;;37.15;24.30;;;15.10;87.10;;;;;;6248721;23;20000;-89
2022/03/20 13:51:49;;;;;;;44.22;24.70;;;15.10;86.70;;;;;;6246185;23;20027;-92
2022/03/20 13:54:23;;;;;;;41.58;25.15;;;15.10;86.50;;;;;;6249345;23;20087;-91
2022/03/20 13:57:04;;;;;;;40.97;25.45;;;15.00;87.10;;;;;;6247150;23;20008;-91
2022/03/20 13:59:32;;;;;;;39.85;26.33;;;15.10;87.10;;;;;;6247986;23;20019;-92
2022/03/20 14:02:00;;;;;;;39.38;24.70;;;15.00;88.10;;;;;;6247904;23;20008;-91
2022/03/20 14:04:29;;;;;;;38.45;25.65;;;15.00;87.10;;;;;;6246408;23;20008;-92
2022/03/20 14:07:00;;;;;;;42.40;25.10;;;14.90;86.30;;;;;;6248667;23;20016;-90
2022/03/20 14:09:37;;;;;;;39.78;24.73;;;14.70;86.30;;;;;;6236331;22;19999;-93
2022/03/20 14:12:31;;;;;;;42.47;26.25;;;14.70;87.50;;;;;;6272284;22;20008;-91
2022/03/20 14:15:11;;;;;;;36.75;25.70;;;14.70;88.30;;;;;;6272979;22;20015;-93
2022/03/20 14:17:52;;;;;;;40.50;25.58;;;14.80;89.10;;;;;;6268125;22;20008;-92
2022/03/20 14:20:32;;;;;;;40.97;25.10;;;14.90;88.20;;;;;;6250197;23;20012;-92
2022/03/20 14:23:19;;;;;;;;;;;;;;;;;;;;;
2022/03/20 14:25:51;;;;;;;36.95;24.25;;;15.20;88.80;;;;;;6247606;23;20083;-92
2022/03/20 14:28:30;;;;;;;34.05;23.45;;;15.30;87.30;;;;;;6247413;23;20000;-91
2022/03/20 14:39:48;;;;;;;36.15;22.92;;;15.70;87.50;;;;;;6250566;23;20023;-91
2022/03/20 14:42:26;;;;;;;38.95;24.35;;;15.80;87.20;;;;;;6249453;23;20008;-92
2022/03/20 14:45:02;;;;;;;42.47;23.00;;;15.70;86.30;;;;;;6247110;23;20008;-91
2022/03/20 14:47:27;;;;;;;38.85;23.70;;;15.70;87.60;;;;;;6247867;23;20007;-91
2022/03/20 14:49:54;;;;;;;35.30;22.90;;;15.80;86.80;;;;;;6247523;23;20016;-92
2022/03/20 14:52:25;;;;;;;34.25;23.20;;;15.80;86.00;;;;;;6250343;23;20350;-91
2022/03/20 14:54:54;;;;;;;30.75;21.85;;;15.80;86.20;;;;;;6250124;23;20004;-92
2022/03/20 14:57:28;;;;;;;41.00;23.85;;;15.90;88.00;;;;;;6248401;23;20086;-91
2022/03/20 15:00:03;;;;;;;32.58;22.58;;;15.90;86.50;;;;;;6248262;23;20510;-91
2022/03/20 15:02:49;;;;;;;;;;;;;;;;;;;;;
2022/03/20 15:05:16;;;;;;;35.70;22.30;;;15.80;87.40;;;;;;6250063;23;20036;-91
2022/03/20 15:11:23;;;;;;;36.92;22.65;;;15.80;88.80;;;;;;6248787;23;20004;-94
2022/03/20 15:14:35;;;;;;;30.38;21.60;;;15.60;88.50;;;;;;6214146;23;20032;-94
2022/03/20 15:17:23;;;;;;;32.03;21.55;;;15.60;88.10;;;;;;6128994;23;20013;-92
2022/03/20 15:20:17;;;;;;;32.13;21.23;;;15.50;88.60;;;;;;6173868;23;20023;-90
2022/03/20 15:23:36;;;;;;;;;;;;;;;;;;;;;
2022/03/20 15:30:41;;;;;;;34.63;22.25;;;15.20;90.10;;;;;;5979959;24;20008;-94
2022/03/20 16:01:19;;;;;;;31.58;22.17;;;14.70;92.30;;;;;;5808732;24;20069;-91
2022/03/20 16:03:54;;;;;;;35.20;20.90;;;14.70;92.70;;;;;;5894116;23;20015;-90
2022/03/20 16:06:35;;;;;;;;;;;;;;;;;;;;;
2022/03/20 16:09:19;;;;;;;;;;;;;;;;;;;;;
2022/03/20 16:12:03;;;;;;;;;;;;;;;;;;;;;
2022/03/20 16:14:44;;;;;;;;;;;;;;;;;;;;;
2022/03/20 16:21:19;;;;;;;35.22;21.25;;;14.60;93.60;;;;;;6032650;23;20543;-92
2022/03/20 16:55:33;;;;;;;31.85;20.13;;;14.30;95.40;;;;;;6320229;22;20334;-90
2022/03/20 16:57:58;;;;;;;29.90;20.48;;;14.00;95.50;;;;;;6316907;22;20003;-90
2022/03/20 17:00:39;;;;;;;34.20;21.95;;;13.90;95.80;;;;;;6326551;22;20338;-90
2022/03/20 17:03:29;;;;;;;28.90;20.35;;;13.80;96.00;;;;;;6331096;22;20039;-92
2022/03/20 17:05:55;;;;;;;32.35;21.33;;;13.80;96.10;;;;;;6323430;22;20009;-89
2022/03/20 17:08:20;;;;;;;32.40;21.80;;;13.70;96.90;;;;;;6330732;22;20002;-89
2022/03/20 17:10:49;;;;;;;30.30;21.33;;;13.70;96.60;;;;;;6320706;22;20080;-90
2022/03/20 17:13:18;;;;;;;32.88;20.98;;;13.60;96.50;;;;;;6312857;22;20014;-90
2022/03/20 17:15:48;;;;;;;33.53;21.92;;;13.60;96.80;;;;;;6313276;22;20015;-89
2022/03/20 17:18:40;;;;;;;31.10;21.25;;;13.60;97.30;;;;;;6316014;22;20006;-92
2022/03/20 17:21:09;;;;;;;29.77;20.40;;;13.50;98.20;;;;;;6313309;22;20002;-90
2022/03/20 17:23:38;;;;;;;32.22;20.15;;;13.50;98.80;;;;;;6314587;22;20019;-92
2022/03/20 17:26:04;;;;;;;30.77;21.35;;;13.40;98.10;;;;;;6319134;22;19999;-94
2022/03/20 17:28:37;;;;;;;32.47;20.50;;;13.30;98.70;;;;;;6317105;22;20107;-92
2022/03/20 17:31:50;;;;;;;;;;;;;;;;;;;;;
2022/03/20 17:34:16;;;;;;;31.33;19.83;;;13.10;99.90;;;;;;6281191;22;20088;-92
2022/03/20 17:36:42;;;;;;;34.08;21.77;;;13.10;99.90;;;;;;6258187;22;20003;-90
2022/03/20 17:42:24;;;;;;;;;;;;;;;;;;;;;
2022/03/20 17:44:50;;;;;;;34.25;20.45;;;12.90;99.90;;;;;;6280712;22;20090;-90
2022/03/20 17:47:17;;;;;;;32.10;21.80;;;12.90;99.90;;;;;;6250094;22;20075;-92
2022/03/20 17:49:42;;;;;;;34.63;21.40;;;12.80;99.90;;;;;;6251363;22;20004;-90
2022/03/20 17:52:11;;;;;;;32.85;20.27;;;12.80;99.90;;;;;;6278346;22;20007;-91
2022/03/20 17:54:38;;;;;;;33.67;20.35;;;12.70;99.90;;;;;;6243569;22;20062;-88
2022/03/20 17:57:04;;;;;;;34.13;20.42;;;12.70;99.90;;;;;;6244933;22;20050;-88
2022/03/20 17:59:38;;;;;;;34.33;20.10;;;12.60;99.90;;;;;;6246824;22;19999;-93
2022/03/20 18:08:14;;;;;;;33.08;19.95;;;12.50;99.90;;;;;;6272467;22;20525;-92
2022/03/20 18:11:39;;;;;;;;;;;;;;;;;;;;;
2022/03/20 18:14:24;;;;;;;32.97;20.23;;;12.40;99.90;;;;;;6093425;23;20081;-91
2022/03/20 18:16:52;;;;;;;41.20;20.10;;;12.30;99.90;;;;;;6069492;23;20026;-93
2022/03/20 18:19:57;;;;;;;32.50;19.63;;;12.20;99.90;;;;;;6150473;23;20009;-90
2022/03/20 18:26:20;;;;;;;33.03;19.80;;;12.20;99.90;;;;;;5951979;24;20433;-90
2022/03/20 18:33:28;;;;;;;30.80;17.95;;;12.10;99.90;;;;;;5875219;24;20051;-91
2022/03/20 19:14:31;;;;;;;29.92;17.67;;;11.80;99.90;;;;;;6275460;22;1401310;-90
2022/03/20 19:17:05;;;;;;;28.23;17.05;;;11.70;99.90;;;;;;6325949;22;20010;-88
2022/03/20 19:19:36;;;;;;;29.65;17.60;;;11.60;99.90;;;;;;6342319;22;20074;-89
2022/03/20 19:22:06;;;;;;;28.02;17.75;;;11.70;99.90;;;;;;6339964;22;20003;-88
2022/03/20 19:24:34;;;;;;;30.42;17.48;;;11.60;99.90;;;;;;6336827;22;20021;-89
2022/03/20 19:27:47;;;;;;;;;;;11.60;99.90;;;;;;6319378;22;20334;-93
2022/03/20 19:30:29;;;;;;;26.50;17.48;;;11.60;99.90;;;;;;6341200;22;19898;-91
2022/03/20 19:32:55;;;;;;;29.45;17.13;;;11.60;99.90;;;;;;6317241;22;20308;-90
2022/03/20 19:40:57;;;;;;;31.63;18.23;;;11.50;99.90;;;;;;6344447;22;20075;-90
2022/03/20 19:43:23;;;;;;;29.70;17.50;;;11.50;99.90;;;;;;6318567;22;20015;-89
2022/03/20 19:45:52;;;;;;;26.38;16.52;;;11.50;99.90;;;;;;6319022;22;20010;-91
2022/03/20 19:48:20;;;;;;;32.50;17.38;;;11.50;99.90;;;;;;6318301;22;20010;-91
2022/03/20 19:50:46;;;;;;;30.65;17.13;;;11.50;99.90;;;;;;6319013;22;19999;-90
2022/03/20 19:53:13;;;;;;;29.35;17.60;;;11.50;99.90;;;;;;6317709;22;20066;-91
2022/03/20 19:55:39;;;;;;;30.20;18.13;;;11.50;99.90;;;;;;6322554;22;20024;-89
2022/03/20 19:58:05;;;;;;;27.30;18.58;;;11.50;99.90;;;;;;6317825;22;20012;-88
2022/03/20 20:00:31;;;;;;;32.67;17.75;;;11.50;99.90;;;;;;6317715;22;20385;-88
2022/03/20 20:02:57;;;;;;;28.55;17.25;;;11.50;99.90;;;;;;6315813;22;20014;-89
2022/03/20 20:05:22;;;;;;;27.35;18.38;;;11.50;99.90;;;;;;6316958;22;20010;-89
2022/03/20 20:07:48;;;;;;;28.17;17.42;;;11.50;99.90;;;;;;6317712;22;20124;-90
2022/03/20 20:10:14;;;;;;;29.90;17.80;;;11.50;99.90;;;;;;6316656;22;20563;-90
2022/03/20 20:12:41;;;;;;;30.63;17.52;;;11.50;99.90;;;;;;6317328;22;20013;-89
2022/03/20 20:15:07;;;;;;;26.90;17.25;;;11.50;99.90;;;;;;6304680;22;20017;-90
2022/03/20 20:17:34;;;;;;;28.65;17.52;;;11.50;99.90;;;;;;6303746;22;20086;-92
2022/03/20 20:20:05;;;;;;;29.15;17.38;;;11.50;99.90;;;;;;6304453;22;20007;-89
2022/03/20 20:22:31;;;;;;;27.45;17.73;;;11.50;99.90;;;;;;6303721;22;20030;-90
2022/03/20 20:25:07;;;;;;;28.63;17.23;;;11.50;99.90;;;;;;6305753;22;20003;-88
2022/03/20 20:27:34;;;;;;;29.63;16.95;;;11.50;99.90;;;;;;6304303;22;19999;-89
2022/03/20 20:30:00;;;;;;;23.10;15.63;;;11.50;99.90;;;;;;6303126;22;20012;-89
2022/03/20 20:32:27;;;;;;;26.58;17.00;;;11.40;99.90;;;;;;6301660;22;20342;-90
2022/03/20 20:34:55;;;;;;;25.60;16.55;;;11.40;99.90;;;;;;6302409;22;20006;-89
2022/03/20 20:37:22;;;;;;;25.90;17.58;;;11.40;99.90;;;;;;6304947;22;20003;-89
2022/03/20 20:39:48;;;;;;;27.80;16.55;;;11.40;99.90;;;;;;6304437;22;20003;-91
2022/03/20 20:42:14;;;;;;;27.20;16.08;;;11.40;99.90;;;;;;6304437;22;20302;-90
2022/03/20 20:44:40;;;;;;;28.33;16.42;;;11.40;99.90;;;;;;6307337;22;20003;-89
2022/03/20 20:47:07;;;;;;;28.13;17.23;;;11.40;99.90;;;;;;6305913;22;20007;-90
2022/03/20 20:49:33;;;;;;;27.08;16.45;;;11.40;99.90;;;;;;6310003;22;20423;-89
2022/03/20 20:52:00;;;;;;;31.05;16.20;;;11.40;99.90;;;;;;6305315;22;20033;-90
2022/03/20 20:54:32;;;;;;;30.73;16.55;;;11.40;99.90;;;;;;6304587;22;20007;-88
2022/03/20 20:56:57;;;;;;;27.52;15.95;;;11.40;99.90;;;;;;6304772;22;20462;-88
2022/03/20 20:59:24;;;;;;;27.50;16.85;;;11.30;99.90;;;;;;6306973;22;20004;-88
2022/03/20 21:01:51;;;;;;;28.67;16.13;;;11.30;99.90;;;;;;6306001;22;20011;-88
2022/03/20 21:04:17;;;;;;;27.60;15.75;;;11.30;99.90;;;;;;6307328;22;20034;-94
2022/03/20 21:10:55;;;;;;;28.05;16.60;;;11.20;99.90;;;;;;6308730;22;19995;-93
2022/03/20 21:12:16;;;;;;;25.80;16.58;;;11.20;99.90;;;;;;6305991;22;20501;-91
2022/03/20 21:14:43;;;;;;;28.63;15.82;;;11.20;99.90;;;;;;6311940;22;20007;-92
2022/03/20 21:17:11;;;;;;;29.70;17.20;;;11.20;99.90;;;;;;6315449;22;20007;-89
2022/03/20 21:19:37;;;;;;;27.98;16.95;;;11.20;99.90;;;;;;6315207;22;19999;-87
2022/03/20 21:22:04;;;;;;;29.13;17.60;;;11.20;99.90;;;;;;6305017;22;20011;-87
2022/03/20 21:24:30;;;;;;;27.95;16.42;;;11.10;99.90;;;;;;6310501;22;20028;-88
2022/03/20 21:26:57;;;;;;;30.90;16.52;;;11.10;99.90;;;;;;6309277;22;20436;-89
2022/03/20 21:29:22;;;;;;;26.40;16.15;;;11.10;99.90;;;;;;6310071;22;20006;-88
2022/03/20 21:31:48;;;;;;;24.77;16.80;;;11.10;99.90;;;;;;6305289;22;20029;-88
2022/03/20 21:34:14;;;;;;;26.55;15.90;;;11.10;99.90;;;;;;6305318;22;20000;-89
2022/03/20 21:36:40;;;;;;;26.48;16.10;;;11.00;99.90;;;;;;6305238;22;20015;-88
2022/03/20 21:39:06;;;;;;;27.98;16.20;;;11.00;99.90;;;;;;6306399;22;20340;-89
2022/03/20 21:41:32;;;;;;;22.75;15.60;;;10.90;99.90;;;;;;6303835;22;20003;-89
2022/03/20 21:43:59;;;;;;;24.58;16.20;;;10.90;99.90;;;;;;6306208;22;20011;-88
2022/03/20 21:46:25;;;;;;;25.98;16.55;;;10.80;99.90;;;;;;6303859;22;19999;-88
2022/03/20 21:48:51;;;;;;;23.00;15.52;;;10.70;99.90;;;;;;6306237;22;20018;-90
2022/03/20 21:51:19;;;;;;;22.92;15.32;;;10.70;99.90;;;;;;6316833;22;20241;-90
2022/03/20 21:53:45;;;;;;;25.85;15.00;;;10.60;99.90;;;;;;6330427;22;19992;-87
2022/03/20 21:56:11;;;;;;;35.42;16.13;;;10.60;99.90;;;;;;6328494;22;20426;-87
2022/03/20 21:58:38;;;;;;;26.40;15.93;;;10.50;99.90;;;;;;6318724;22;20050;-90
2022/03/20 22:01:04;;;;;;;23.27;16.17;;;10.40;99.90;;;;;;6309384;22;20013;-90
2022/03/20 22:03:30;;;;;;;28.63;15.95;;;10.30;99.90;;;;;;6303341;22;20101;-89
2022/03/20 22:05:55;;;;;;;23.25;15.77;;;10.30;99.90;;;;;;6303297;22;20061;-89
2022/03/20 22:08:21;;;;;;;24.48;15.93;;;10.20;99.90;;;;;;6303851;22;20329;-90
2022/03/20 22:10:47;;;;;;;25.20;14.43;;;10.20;99.90;;;;;;6303117;22;20003;-88
2022/03/20 22:13:13;;;;;;;28.92;16.20;;;10.20;99.90;;;;;;6305280;22;20074;-88
2022/03/20 22:15:39;;;;;;;23.65;14.85;;;10.10;99.90;;;;;;6309320;22;20053;-93
2022/03/20 22:18:06;;;;;;;23.20;15.57;;;10.00;99.90;;;;;;6311898;22;19999;-90
2022/03/20 22:20:33;;;;;;;25.02;15.45;;;10.00;99.90;;;;;;6313862;22;20003;-89
2022/03/20 22:22:59;;;;;;;24.15;15.05;;;9.90;99.90;;;;;;6312864;22;20091;-89
2022/03/20 22:25:26;;;;;;;24.90;14.75;;;9.90;99.90;;;;;;6312556;22;20372;-89
2022/03/20 22:27:52;;;;;;;20.92;14.00;;;9.90;99.90;;;;;;6308586;22;20026;-89
2022/03/20 22:30:18;;;;;;;22.35;14.27;;;9.80;99.90;;;;;;6310229;22;20277;-88
2022/03/20 22:32:44;;;;;;;24.13;14.32;;;9.80;99.90;;;;;;6313048;22;20009;-89
2022/03/20 22:37:55;;;;;;;23.45;13.75;;;9.80;99.90;;;;;;6317457;22;20052;-89
2022/03/20 22:40:24;;;;;;;23.38;13.90;;;9.80;99.90;;;;;;6311817;22;20041;-90
2022/03/20 22:42:51;;;;;;;20.02;13.40;;;9.70;99.90;;;;;;6308439;22;20019;-88
2022/03/20 22:45:18;;;;;;;21.02;13.25;;;9.70;99.90;;;;;;6308585;22;20006;-88
2022/03/20 22:47:44;;;;;;;26.08;13.40;;;9.60;99.90;;;;;;6309472;22;20003;-89
2022/03/20 22:50:13;;;;;;;21.55;13.57;;;9.60;99.90;;;;;;6308055;22;20477;-88
2022/03/20 22:52:41;;;;;;;22.85;13.50;;;9.60;99.90;;;;;;6309468;22;20018;-90
2022/03/20 22:55:13;;;;;;;23.17;14.10;;;9.60;99.90;;;;;;6311380;22;20002;-89
2022/03/20 22:57:39;;;;;;;27.35;13.60;;;9.60;99.90;;;;;;6308110;22;20009;-89
2022/03/20 23:00:27;;;;;;;24.30;13.30;;;9.60;99.90;;;;;;6310717;22;20082;-89
2022/03/20 23:02:52;;;;;;;25.92;13.50;;;9.70;99.90;;;;;;6312171;22;20010;-89
2022/03/20 23:05:18;;;;;;;24.48;13.77;;;9.70;99.90;;;;;;6312715;22;20010;-91
2022/03/20 23:07:44;;;;;;;22.13;13.70;;;9.80;99.90;;;;;;6317526;22;20003;-90
2022/03/20 23:10:10;;;;;;;23.25;13.35;;;9.70;99.90;;;;;;6314019;22;20031;-89
2022/03/20 23:12:37;;;;;;;24.42;14.30;;;9.70;99.90;;;;;;6309116;22;20003;-90
2022/03/20 23:15:05;;;;;;;23.67;14.60;;;9.80;99.90;;;;;;6311696;22;20351;-91
2022/03/20 23:17:33;;;;;;;24.50;14.52;;;9.80;99.90;;;;;;6311348;22;20052;-90
2022/03/20 23:19:59;;;;;;;22.90;13.55;;;9.90;99.90;;;;;;6308888;22;20003;-89
2022/03/20 23:22:26;;;;;;;19.77;13.30;;;10.00;99.90;;;;;;6307931;22;20007;-90
2022/03/20 23:24:54;;;;;;;30.38;13.77;;;10.00;99.90;;;;;;6308166;22;20035;-90
2022/03/20 23:27:20;;;;;;;24.88;14.02;;;10.10;99.90;;;;;;6307984;22;19998;-89
2022/03/20 23:29:46;;;;;;;22.13;14.45;;;10.20;99.90;;;;;;6307634;22;20003;-89
2022/03/20 23:32:16;;;;;;;23.20;14.05;;;10.20;99.90;;;;;;6308050;22;20008;-89
2022/03/20 23:34:45;;;;;;;19.83;13.52;;;10.30;99.90;;;;;;6310146;22;20003;-92
2022/03/20 23:37:14;;;;;;;23.20;14.55;;;10.30;99.90;;;;;;6309270;22;20014;-89
2022/03/20 23:39:40;;;;;;;24.88;14.68;;;10.40;99.90;;;;;;6307713;22;20077;-89
2022/03/20 23:44:51;;;;;;;24.08;14.63;;;10.40;99.90;;;;;;6334895;22;20111;-89
2022/03/20 23:47:17;;;;;;;27.30;14.02;;;10.50;99.90;;;;;;6307817;22;19998;-90
2022/03/20 23:49:42;;;;;;;20.45;14.65;;;10.50;99.90;;;;;;6308296;22;20010;-89
2022/03/20 23:52:08;;;;;;;23.35;14.40;;;10.50;99.90;;;;;;6309816;22;20030;-88
2022/03/20 23:54:34;;;;;;;24.15;13.85;;;10.60;99.90;;;;;;6309365;22;20036;-90
2022/03/20 23:57:00;;;;;;;23.17;14.10;;;10.60;99.90;;;;;;6337491;22;19998;-89
2022/03/20 23:59:27;;;;;;;24.23;14.00;;;10.60;99.90;;;;;;6309826;22;20074;-90
